Time,TemperatureF,DewpointF,PressureIn,WindDirection,WindDirectionDegrees,WindSpeedMPH,WindSpeedGustMPH,Humidity,HourlyPrecipIn,Conditions,Clouds,dailyrainin,SoftwareType,DateUTC
2013-05-26 00:00:00,51.9,33.9,30.01,NW,315,2.0,9.0,50,0.00,,---,0.00,VWS V14.01,2013-05-26 04:00:00,
2013-05-26 00:15:00,52.2,34.1,30.01,NW,315,3.0,11.0,50,0.00,,---,0.00,VWS V14.01,2013-05-26 04:15:00,
2013-05-26 00:30:00,52.6,34.5,30.01,NW,315,3.0,13.0,50,0.00,,---,0.00,VWS V14.01,2013-05-26 04:30:00,
2013-05-26 00:45:00,53.1,34.5,30.00,NW,315,4.0,12.0,49,0.00,,---,0.00,VWS V14.01,2013-05-26 04:45:00,
2013-05-26 01:00:00,52.6,35.0,30.01,NW,315,3.0,10.0,51,0.00,,---,0.00,VWS V14.01,2013-05-26 05:00:00,
2013-05-26 01:15:00,52.2,34.6,30.01,WNW,292,2.0,9.0,51,0.00,,---,0.00,VWS V14.01,2013-05-26 05:15:00,
2013-05-26 01:30:00,51.6,35.0,30.01,NNW,338,2.0,7.0,53,0.00,,---,0.00,VWS V14.01,2013-05-26 05:30:00,
2013-05-26 01:45:00,50.8,35.2,30.01,NNE,22,0.0,4.0,55,0.00,,---,0.00,VWS V14.01,2013-05-26 05:45:00,
2013-05-26 02:00:00,49.4,37.3,30.01,NE,45,1.0,5.0,63,0.00,,---,0.00,VWS V14.01,2013-05-26 06:00:00,
2013-05-26 02:15:00,48.3,37.5,30.01,NNE,22,0.0,2.0,66,0.00,,---,0.00,VWS V14.01,2013-05-26 06:15:00,
2013-05-26 02:30:00,47.1,37.5,30.02,NNE,22,0.0,2.0,69,0.00,,---,0.00,VWS V14.01,2013-05-26 06:30:00,
2013-05-26 02:45:00,46.5,38.7,30.02,NNE,22,0.0,0.0,74,0.00,,---,0.00,VWS V14.01,2013-05-26 06:45:00,
2013-05-26 03:00:00,46.1,39.6,30.02,SW,225,0.0,6.0,78,0.00,,---,0.00,VWS V14.01,2013-05-26 07:00:00,
2013-05-26 03:15:00,47.1,39.2,30.02,WSW,248,0.0,4.0,74,0.00,,---,0.00,VWS V14.01,2013-05-26 07:15:00,
2013-05-26 03:30:00,48.2,38.9,30.02,WSW,248,1.0,7.0,70,0.00,,---,0.00,VWS V14.01,2013-05-26 07:30:00,
2013-05-26 03:45:00,48.2,38.2,30.01,WSW,248,1.0,5.0,68,0.00,,---,0.00,VWS V14.01,2013-05-26 07:45:00,
2013-05-26 04:00:00,47.7,38.0,30.02,WSW,248,1.0,5.0,69,0.00,,---,0.00,VWS V14.01,2013-05-26 08:00:00,
2013-05-26 04:15:00,46.8,38.3,30.01,WSW,248,0.0,3.0,72,0.00,,---,0.00,VWS V14.01,2013-05-26 08:15:00,
2013-05-26 04:30:00,46.7,37.8,30.02,SSW,202,0.0,3.0,71,0.00,,---,0.00,VWS V14.01,2013-05-26 08:30:00,
2013-05-26 04:45:00,47.3,37.7,30.02,SW,225,1.0,6.0,69,0.00,,---,0.00,VWS V14.01,2013-05-26 08:45:00,
2013-05-26 05:00:00,47.9,37.9,30.02,WSW,248,1.0,6.0,68,0.00,,---,0.00,VWS V14.01,2013-05-26 09:00:00,
2013-05-26 05:15:00,47.4,37.4,30.03,SW,225,0.0,4.0,68,0.00,,---,0.00,VWS V14.01,2013-05-26 09:15:00,
2013-05-26 05:30:00,47.3,37.3,30.03,SW,225,1.0,6.0,68,0.00,,---,0.00,VWS V14.01,2013-05-26 09:30:00,
2013-05-26 05:45:00,46.8,37.2,30.03,WSW,248,0.0,6.0,69,0.00,,---,0.00,VWS V14.01,2013-05-26 09:45:00,
2013-05-26 06:00:00,46.5,37.3,30.04,WSW,248,0.0,1.0,70,0.00,,---,0.00,VWS V14.01,2013-05-26 10:00:00,
2013-05-26 06:15:00,46.7,37.1,30.04,NW,315,1.0,4.0,69,0.00,,---,0.00,VWS V14.01,2013-05-26 10:15:00,
2013-05-26 06:30:00,46.5,37.3,30.05,South,180,0.0,3.0,70,0.00,,---,0.00,VWS V14.01,2013-05-26 10:30:00,
2013-05-26 06:45:00,47.3,37.3,30.05,South,180,0.0,2.0,68,0.00,,---,0.00,VWS V14.01,2013-05-26 10:45:00,
2013-05-26 07:00:00,48.3,37.5,30.05,WSW,248,1.0,5.0,66,0.00,,---,0.00,VWS V14.01,2013-05-26 11:00:00,
2013-05-26 07:15:00,49.4,37.8,30.05,WSW,248,1.0,6.0,64,0.00,,---,0.00,VWS V14.01,2013-05-26 11:15:00,
2013-05-26 07:30:00,50.4,37.9,30.05,WNW,292,2.0,9.0,62,0.00,,---,0.00,VWS V14.01,2013-05-26 11:30:00,
2013-05-26 07:45:00,51.1,36.8,30.05,WSW,248,3.0,14.0,58,0.00,,---,0.00,VWS V14.01,2013-05-26 11:45:00,
2013-05-26 08:00:00,52.0,37.7,30.05,WSW,248,4.0,14.0,58,0.00,,---,0.00,VWS V14.01,2013-05-26 12:00:00,
2013-05-26 08:15:00,52.6,37.8,30.06,WSW,248,4.0,15.0,57,0.00,,---,0.00,VWS V14.01,2013-05-26 12:15:00,
2013-05-26 08:30:00,53.2,37.5,30.06,WSW,248,6.0,16.0,55,0.00,,---,0.00,VWS V14.01,2013-05-26 12:30:00,
2013-05-26 08:45:00,54.1,38.3,30.06,WSW,248,3.0,11.0,55,0.00,,---,0.00,VWS V14.01,2013-05-26 12:45:00,
2013-05-26 09:00:00,54.4,37.6,30.06,West,270,5.0,17.0,53,0.00,,---,0.00,VWS V14.01,2013-05-26 13:00:00,
2013-05-26 09:15:00,55.0,38.2,30.06,WSW,248,5.0,19.0,53,0.00,,---,0.00,VWS V14.01,2013-05-26 13:15:00,
2013-05-26 09:30:00,55.6,37.3,30.06,WSW,248,6.0,16.0,50,0.00,,---,0.00,VWS V14.01,2013-05-26 13:30:00,
2013-05-26 09:45:00,56.0,37.6,30.05,WSW,248,7.0,17.0,50,0.00,,---,0.00,VWS V14.01,2013-05-26 13:45:00,
2013-05-26 10:00:00,57.0,38.0,30.05,WSW,248,5.0,18.0,49,0.00,,---,0.00,VWS V14.01,2013-05-26 14:00:00,
2013-05-26 10:15:00,57.6,37.5,30.05,WNW,292,6.0,15.0,47,0.00,,---,0.00,VWS V14.01,2013-05-26 14:15:00,
2013-05-26 10:30:00,57.6,37.0,30.05,WSW,248,7.0,18.0,46,0.00,,---,0.00,VWS V14.01,2013-05-26 14:30:00,
2013-05-26 10:45:00,58.3,37.1,30.05,WSW,248,8.0,20.0,45,0.00,,---,0.00,VWS V14.01,2013-05-26 14:45:00,
2013-05-26 11:12:00,60.1,35.7,30.05,NNE,21,5.0,13.0,40,0.00,,---,0.00,VWS V14.01,2013-05-26 15:12:00,
2013-05-26 11:14:00,60.2,37.0,30.05,SW,230,5.0,14.0,42,0.00,,---,0.00,VWS V14.01,2013-05-26 15:14:00,
2013-05-26 11:16:00,60.2,34.5,30.05,NNW,345,5.0,12.0,38,0.00,,---,0.00,VWS V14.01,2013-05-26 15:16:00,
2013-05-26 11:18:00,60.4,37.2,30.05,WNW,283,6.0,12.0,42,0.00,,---,0.00,VWS V14.01,2013-05-26 15:18:00,
2013-05-26 11:22:00,60.4,34.0,30.05,NNW,344,6.0,22.0,37,0.00,,---,0.00,VWS V14.01,2013-05-26 15:22:00,
2013-05-26 11:24:00,60.5,34.1,30.05,NW,324,9.0,22.0,37,0.00,,---,0.00,VWS V14.01,2013-05-26 15:24:00,
2013-05-26 11:28:00,60.9,37.1,30.05,West,272,5.0,22.0,41,0.00,,---,0.00,VWS V14.01,2013-05-26 15:28:00,
2013-05-26 11:32:00,61.0,37.2,30.05,NW,315,6.0,11.0,41,0.00,,---,0.00,VWS V14.01,2013-05-26 15:32:00,
2013-05-26 11:34:00,61.2,38.0,30.05,SW,225,11.0,11.0,42,0.00,,---,0.00,VWS V14.01,2013-05-26 15:34:00,
2013-05-26 11:36:00,61.3,39.8,30.05,West,280,4.0,11.0,45,0.00,,---,0.00,VWS V14.01,2013-05-26 15:36:00,
2013-05-26 11:38:00,61.6,38.3,30.05,WNW,300,2.0,11.0,42,0.00,,---,0.00,VWS V14.01,2013-05-26 15:38:00,
2013-05-26 11:40:00,62.0,41.0,30.05,WSW,237,5.0,11.0,46,0.00,,---,0.00,VWS V14.01,2013-05-26 15:40:00,
2013-05-26 11:46:00,62.4,40.2,30.05,NNW,348,6.0,11.0,44,0.00,,---,0.00,VWS V14.01,2013-05-26 15:46:00,
2013-05-26 11:51:00,62.4,36.5,30.05,SW,220,3.0,15.0,38,0.00,,---,0.00,VWS V14.01,2013-05-26 15:51:00,
2013-05-26 11:53:00,62.4,37.8,30.05,NW,322,7.0,15.0,40,0.00,,---,0.00,VWS V14.01,2013-05-26 15:53:00,
2013-05-26 11:55:00,62.3,35.7,30.05,NW,315,4.0,15.0,37,0.00,,---,0.00,VWS V14.01,2013-05-26 15:55:00,
2013-05-26 11:59:00,62.3,37.7,30.04,WSW,247,6.0,15.0,40,0.00,,---,0.00,VWS V14.01,2013-05-26 15:59:00,
2013-05-26 12:01:00,62.3,36.4,30.05,WNW,285,9.0,15.0,38,0.00,,---,0.00,VWS V14.01,2013-05-26 16:01:00,
2013-05-26 12:05:00,62.3,35.0,30.04,SW,233,5.0,14.0,36,0.00,,---,0.00,VWS V14.01,2013-05-26 16:05:00,
2013-05-26 12:07:00,62.3,35.0,30.04,WNW,294,3.0,14.0,36,0.00,,---,0.00,VWS V14.01,2013-05-26 16:07:00,
2013-05-26 12:11:00,62.6,37.3,30.04,NW,317,9.0,14.0,39,0.00,,---,0.00,VWS V14.01,2013-05-26 16:11:00,
2013-05-26 12:13:00,62.7,35.4,30.04,NNW,331,7.0,14.0,36,0.00,,---,0.00,VWS V14.01,2013-05-26 16:13:00,
2013-05-26 12:15:00,62.9,34.8,30.04,NW,323,5.0,14.0,35,0.00,,---,0.00,VWS V14.01,2013-05-26 16:15:00,
2013-05-26 12:16:00,62.9,35.6,30.04,WNW,295,4.0,14.0,36,0.00,,---,0.00,VWS V14.01,2013-05-26 16:16:00,
2013-05-26 12:19:00,63.1,36.4,30.04,SW,229,3.0,9.0,37,0.00,,---,0.00,VWS V14.01,2013-05-26 16:19:00,
2013-05-26 12:21:00,63.1,36.4,30.04,WNW,284,13.0,18.0,37,0.00,,---,0.00,VWS V14.01,2013-05-26 16:21:00,
2013-05-26 12:25:00,62.6,35.3,30.04,SW,224,13.0,18.0,36,0.00,,---,0.00,VWS V14.01,2013-05-26 16:25:00,
2013-05-26 12:27:00,62.6,33.9,30.04,WNW,292,6.0,18.0,34,0.00,,---,0.00,VWS V14.01,2013-05-26 16:27:00,
2013-05-26 12:31:00,62.6,34.6,30.04,WSW,243,5.0,18.0,35,0.00,,---,0.00,VWS V14.01,2013-05-26 16:31:00,
2013-05-26 12:37:00,62.7,35.4,30.04,NW,319,3.0,17.0,36,0.00,,---,0.00,VWS V14.01,2013-05-26 16:37:00,
2013-05-26 12:39:00,62.7,34.0,30.04,NW,306,10.0,17.0,34,0.00,,---,0.00,VWS V14.01,2013-05-26 16:39:00,
2013-05-26 12:41:00,62.6,33.1,30.04,NNE,16,11.0,17.0,33,0.00,,---,0.00,VWS V14.01,2013-05-26 16:41:00,
2013-05-26 12:43:00,62.6,33.9,30.04,WSW,247,9.0,17.0,34,0.00,,---,0.00,VWS V14.01,2013-05-26 16:43:00,
2013-05-26 12:45:00,62.7,36.1,30.04,West,277,6.0,17.0,37,0.00,,---,0.00,VWS V14.01,2013-05-26 16:45:00,
2013-05-26 12:49:00,62.9,34.8,30.04,WNW,292,3.0,13.0,35,0.00,,---,0.00,VWS V14.01,2013-05-26 16:49:00,
2013-05-26 12:51:00,62.9,34.8,30.04,West,260,13.0,13.0,35,0.00,,---,0.00,VWS V14.01,2013-05-26 16:51:00,
2013-05-26 12:53:00,63.1,34.3,30.04,West,280,5.0,14.0,34,0.00,,---,0.00,VWS V14.01,2013-05-26 16:53:00,
2013-05-26 12:57:00,63.4,35.3,30.04,NNE,24,9.0,14.0,35,0.00,,---,0.00,VWS V14.01,2013-05-26 16:57:00,
2013-05-26 12:59:00,63.4,36.0,30.04,WSW,237,16.0,17.0,36,0.00,,---,0.00,VWS V14.01,2013-05-26 16:59:00,
2013-05-26 13:01:00,63.4,32.3,30.04,NW,304,6.0,22.0,31,0.00,,---,0.00,VWS V14.01,2013-05-26 17:01:00,
2013-05-26 13:05:00,63.2,33.6,30.04,NNE,26,5.0,16.0,33,0.00,,---,0.00,VWS V14.01,2013-05-26 17:05:00,
2013-05-26 13:09:00,63.7,34.8,30.04,WSW,255,9.0,16.0,34,0.00,,---,0.00,VWS V14.01,2013-05-26 17:09:00,
2013-05-26 13:11:00,64.0,35.8,30.04,West,272,9.0,16.0,35,0.00,,---,0.00,VWS V14.01,2013-05-26 17:11:00,
2013-05-26 13:15:00,64.2,37.4,30.04,West,276,2.0,16.0,37,0.00,,---,0.00,VWS V14.01,2013-05-26 17:15:00,
2013-05-26 13:16:00,64.2,34.5,30.04,NNW,338,12.0,16.0,33,0.00,,---,0.00,VWS V14.01,2013-05-26 17:16:00,
2013-05-26 13:17:00,64.2,35.3,30.04,West,270,12.0,15.0,34,0.00,,---,0.00,VWS V14.01,2013-05-26 17:17:00,
2013-05-26 13:19:00,64.2,36.0,30.04,WSW,252,3.0,15.0,35,0.00,,---,0.00,VWS V14.01,2013-05-26 17:19:00,
2013-05-26 13:23:00,64.3,38.2,30.04,North,5,12.0,15.0,38,0.00,,---,0.00,VWS V14.01,2013-05-26 17:23:00,
2013-05-26 13:25:00,64.5,35.5,30.04,West,261,4.0,15.0,34,0.00,,---,0.00,VWS V14.01,2013-05-26 17:25:00,
2013-05-26 13:27:00,64.5,37.0,30.04,WNW,290,6.0,15.0,36,0.00,,---,0.00,VWS V14.01,2013-05-26 17:27:00,
2013-05-26 13:29:00,64.7,35.7,30.04,WNW,300,6.0,15.0,34,0.00,,---,0.00,VWS V14.01,2013-05-26 17:29:00,
2013-05-26 13:33:00,64.5,35.5,30.04,WNW,298,4.0,15.0,34,0.00,,---,0.00,VWS V14.01,2013-05-26 17:33:00,
2013-05-26 13:37:00,64.8,37.2,30.03,NW,307,3.0,17.0,36,0.00,,---,0.00,VWS V14.01,2013-05-26 17:37:00,
2013-05-26 13:39:00,65.0,36.0,30.03,WSW,252,10.0,17.0,34,0.00,,---,0.00,VWS V14.01,2013-05-26 17:39:00,
2013-05-26 13:41:00,64.8,34.3,30.04,NW,325,6.0,17.0,32,0.00,,---,0.00,VWS V14.01,2013-05-26 17:41:00,
2013-05-26 13:45:00,65.0,36.0,30.04,West,259,6.0,17.0,34,0.00,,---,0.00,VWS V14.01,2013-05-26 17:45:00,
2013-05-26 13:46:00,65.0,36.0,30.04,West,275,5.0,17.0,34,0.00,,---,0.00,VWS V14.01,2013-05-26 17:46:00,
2013-05-26 13:47:00,65.2,35.4,30.04,NW,304,4.0,10.0,33,0.00,,---,0.00,VWS V14.01,2013-05-26 17:47:00,
2013-05-26 13:51:00,65.2,33.8,30.04,NW,322,4.0,16.0,31,0.00,,---,0.00,VWS V14.01,2013-05-26 17:51:00,
2013-05-26 13:53:00,65.2,33.8,30.03,West,265,5.0,16.0,31,0.00,,---,0.00,VWS V14.01,2013-05-26 17:53:00,
2013-05-26 13:57:00,65.3,36.2,30.04,ENE,60,4.0,16.0,34,0.00,,---,0.00,VWS V14.01,2013-05-26 17:57:00,
2013-05-26 13:59:00,65.3,33.9,30.03,North,10,9.0,16.0,31,0.00,,---,0.00,VWS V14.01,2013-05-26 17:59:00,
2013-05-26 14:01:00,65.3,37.0,30.04,WNW,290,0.0,16.0,35,0.00,,---,0.00,VWS V14.01,2013-05-26 18:01:00,
2013-05-26 14:03:00,65.5,37.9,30.03,West,260,4.0,9.0,36,0.00,,---,0.00,VWS V14.01,2013-05-26 18:03:00,
2013-05-26 14:05:00,65.6,37.2,30.03,NW,307,6.0,21.0,35,0.00,,---,0.00,VWS V14.01,2013-05-26 18:05:00,
2013-05-26 14:07:00,65.8,35.9,30.03,WNW,298,9.0,21.0,33,0.00,,---,0.00,VWS V14.01,2013-05-26 18:07:00,
2013-05-26 14:09:00,66.0,36.1,30.03,WSW,245,11.0,21.0,33,0.00,,---,0.00,VWS V14.01,2013-05-26 18:09:00,
2013-05-26 14:11:00,65.8,35.9,30.03,West,266,5.0,21.0,33,0.00,,---,0.00,VWS V14.01,2013-05-26 18:11:00,
2013-05-26 14:13:00,66.0,37.6,30.03,WSW,238,4.0,21.0,35,0.00,,---,0.00,VWS V14.01,2013-05-26 18:13:00,
2013-05-26 14:15:00,66.1,39.1,30.03,SSW,204,5.0,21.0,37,0.00,,---,0.00,VWS V14.01,2013-05-26 18:15:00,
2013-05-26 14:17:00,66.3,36.4,30.03,WNW,286,9.0,11.0,33,0.00,,---,0.00,VWS V14.01,2013-05-26 18:17:00,
2013-05-26 14:19:00,66.3,37.1,30.03,WSW,245,8.0,12.0,34,0.00,,---,0.00,VWS V14.01,2013-05-26 18:19:00,
2013-05-26 14:23:00,66.1,33.0,30.03,NW,309,5.0,12.0,29,0.00,,---,0.00,VWS V14.01,2013-05-26 18:23:00,
2013-05-26 14:25:00,66.1,36.9,30.03,NNW,329,5.0,15.0,34,0.00,,---,0.00,VWS V14.01,2013-05-26 18:25:00,
2013-05-26 14:29:00,66.0,32.9,30.03,NNW,347,5.0,20.0,29,0.00,,---,0.00,VWS V14.01,2013-05-26 18:29:00,
2013-05-26 14:31:00,66.0,33.7,30.04,WNW,295,6.0,20.0,30,0.00,,---,0.00,VWS V14.01,2013-05-26 18:31:00,
2013-05-26 14:37:00,65.8,33.5,30.03,NW,304,9.0,15.0,30,0.00,,---,0.00,VWS V14.01,2013-05-26 18:37:00,
2013-05-26 14:39:00,65.8,34.3,30.03,West,259,11.0,15.0,31,0.00,,---,0.00,VWS V14.01,2013-05-26 18:39:00,
2013-05-26 14:41:00,66.0,35.3,30.03,West,259,5.0,15.0,32,0.00,,---,0.00,VWS V14.01,2013-05-26 18:41:00,
2013-05-26 14:43:00,66.1,34.6,30.03,NW,306,13.0,15.0,31,0.00,,---,0.00,VWS V14.01,2013-05-26 18:43:00,
2013-05-26 14:45:00,66.1,35.4,30.03,WNW,282,6.0,15.0,32,0.00,,---,0.00,VWS V14.01,2013-05-26 18:45:00,
2013-05-26 14:47:00,66.1,33.8,30.03,WSW,242,10.0,14.0,30,0.00,,---,0.00,VWS V14.01,2013-05-26 18:47:00,
2013-05-26 14:51:00,66.4,34.9,30.03,WSW,258,5.0,14.0,31,0.00,,---,0.00,VWS V14.01,2013-05-26 18:51:00,
2013-05-26 14:53:00,66.4,33.2,30.03,WNW,283,11.0,14.0,29,0.00,,---,0.00,VWS V14.01,2013-05-26 18:53:00,
2013-05-26 14:57:00,66.6,35.0,30.03,WNW,294,9.0,15.0,31,0.00,,---,0.00,VWS V14.01,2013-05-26 18:57:00,
2013-05-26 14:59:00,66.8,36.0,30.03,WNW,286,10.0,15.0,32,0.00,,---,0.00,VWS V14.01,2013-05-26 18:59:00,
2013-05-26 15:01:00,66.8,35.2,30.03,NW,326,4.0,15.0,31,0.00,,---,0.00,VWS V14.01,2013-05-26 19:01:00,
2013-05-26 15:03:00,66.9,34.5,30.03,NNW,327,5.0,11.0,30,0.00,,---,0.00,VWS V14.01,2013-05-26 19:03:00,
2013-05-26 15:05:00,66.9,37.7,30.03,WNW,302,14.0,14.0,34,0.00,,---,0.00,VWS V14.01,2013-05-26 19:05:00,
2013-05-26 15:07:00,67.1,35.5,30.03,West,262,5.0,14.0,31,0.00,,---,0.00,VWS V14.01,2013-05-26 19:07:00,
2013-05-26 15:09:00,67.1,36.3,30.03,NW,317,10.0,14.0,32,0.00,,---,0.00,VWS V14.01,2013-05-26 19:09:00,
2013-05-26 15:11:00,67.1,36.3,30.03,SW,233,9.0,14.0,32,0.00,,---,0.00,VWS V14.01,2013-05-26 19:11:00,
2013-05-26 15:13:00,67.1,37.1,30.03,North,11,12.0,14.0,33,0.00,,---,0.00,VWS V14.01,2013-05-26 19:13:00,
2013-05-26 15:17:00,67.1,36.3,30.03,West,275,10.0,15.0,32,0.00,,---,0.00,VWS V14.01,2013-05-26 19:17:00,
2013-05-26 15:19:00,67.3,38.0,30.03,NW,322,12.0,15.0,34,0.00,,---,0.00,VWS V14.01,2013-05-26 19:19:00,
2013-05-26 15:23:00,67.1,33.8,30.03,NNW,327,5.0,15.0,29,0.00,,---,0.00,VWS V14.01,2013-05-26 19:23:00,
2013-05-26 15:25:00,67.1,33.8,30.03,NW,309,2.0,15.0,29,0.00,,---,0.00,VWS V14.01,2013-05-26 19:25:00,
2013-05-26 15:27:00,67.3,34.8,30.03,NW,310,2.0,15.0,30,0.00,,---,0.00,VWS V14.01,2013-05-26 19:27:00,
2013-05-26 15:29:00,67.4,37.3,30.03,WNW,299,2.0,15.0,33,0.00,,---,0.00,VWS V14.01,2013-05-26 19:29:00,
2013-05-26 15:31:00,67.6,35.9,30.03,NW,311,6.0,15.0,31,0.00,,---,0.00,VWS V14.01,2013-05-26 19:31:00,
2013-05-26 15:33:00,67.6,34.2,30.03,SW,224,11.0,17.0,29,0.00,,---,0.00,VWS V14.01,2013-05-26 19:33:00,
2013-05-26 15:35:00,67.6,35.1,30.03,WNW,295,4.0,17.0,30,0.00,,---,0.00,VWS V14.01,2013-05-26 19:35:00,
2013-05-26 15:37:00,67.6,32.5,30.03,WNW,294,7.0,17.0,27,0.00,,---,0.00,VWS V14.01,2013-05-26 19:37:00,
2013-05-26 15:39:00,67.4,33.2,30.03,West,262,9.0,17.0,28,0.00,,---,0.00,VWS V14.01,2013-05-26 19:39:00,
2013-05-26 15:43:00,67.1,32.9,30.03,NW,317,11.0,17.0,28,0.00,,---,0.00,VWS V14.01,2013-05-26 19:43:00,
2013-05-26 15:46:00,67.1,34.7,30.03,NNW,333,5.0,17.0,30,0.00,,---,0.00,VWS V14.01,2013-05-26 19:46:00,
2013-05-26 15:47:00,67.3,34.8,30.03,WNW,292,5.0,12.0,30,0.00,,---,0.00,VWS V14.01,2013-05-26 19:47:00,
2013-05-26 15:51:00,67.3,33.1,30.03,SW,221,13.0,17.0,28,0.00,,---,0.00,VWS V14.01,2013-05-26 19:51:00,
2013-05-26 15:55:00,67.1,32.9,30.03,SW,232,9.0,18.0,28,0.00,,---,0.00,VWS V14.01,2013-05-26 19:55:00,
2013-05-26 15:59:00,67.1,32.9,30.03,North,350,6.0,18.0,28,0.00,,---,0.00,VWS V14.01,2013-05-26 19:59:00,
2013-05-26 16:01:00,67.1,31.1,30.03,West,265,5.0,19.0,26,0.00,,---,0.00,VWS V14.01,2013-05-26 20:01:00,
2013-05-26 16:03:00,67.3,33.1,30.03,West,270,4.0,14.0,28,0.00,,---,0.00,VWS V14.01,2013-05-26 20:03:00,
2013-05-26 16:05:00,67.4,34.1,30.04,WNW,282,5.0,14.0,29,0.00,,---,0.00,VWS V14.01,2013-05-26 20:05:00,
2013-05-26 16:07:00,67.6,34.2,30.04,WNW,286,5.0,17.0,29,0.00,,---,0.00,VWS V14.01,2013-05-26 20:07:00,
2013-05-26 16:11:00,67.6,34.2,30.04,West,281,8.0,17.0,29,0.00,,---,0.00,VWS V14.01,2013-05-26 20:11:00,
2013-05-26 16:13:00,67.8,33.5,30.04,West,263,7.0,17.0,28,0.00,,---,0.00,VWS V14.01,2013-05-26 20:13:00,
2013-05-26 16:15:00,67.8,33.5,30.03,WNW,301,3.0,17.0,28,0.00,,---,0.00,VWS V14.01,2013-05-26 20:15:00,
2013-05-26 16:17:00,67.8,33.5,30.04,West,272,4.0,10.0,28,0.00,,---,0.00,VWS V14.01,2013-05-26 20:17:00,
2013-05-26 16:19:00,67.8,32.6,30.03,WNW,294,1.0,10.0,27,0.00,,---,0.00,VWS V14.01,2013-05-26 20:19:00,
2013-05-26 16:23:00,67.9,33.6,30.04,WSW,256,3.0,14.0,28,0.00,,---,0.00,VWS V14.01,2013-05-26 20:23:00,
2013-05-26 16:25:00,68.1,34.7,30.04,West,265,6.0,14.0,29,0.00,,---,0.00,VWS V14.01,2013-05-26 20:25:00,
2013-05-26 16:27:00,68.1,34.7,30.04,North,355,5.0,14.0,29,0.00,,---,0.00,VWS V14.01,2013-05-26 20:27:00,
2013-05-26 16:29:00,68.1,32.9,30.04,North,355,4.0,14.0,27,0.00,,---,0.00,VWS V14.01,2013-05-26 20:29:00,
2013-05-26 16:31:00,68.1,33.8,30.04,WNW,301,3.0,5.0,28,0.00,,---,0.00,VWS V14.01,2013-05-26 20:31:00,
2013-05-26 16:33:00,67.9,33.6,30.04,WNW,299,1.0,12.0,28,0.00,,---,0.00,VWS V14.01,2013-05-26 20:33:00,
2013-05-26 16:37:00,67.9,33.6,30.04,WSW,257,3.0,15.0,28,0.00,,---,0.00,VWS V14.01,2013-05-26 20:37:00,
2013-05-26 16:43:00,68.1,33.8,30.04,WSW,257,2.0,15.0,28,0.00,,---,0.00,VWS V14.01,2013-05-26 20:43:00,
2013-05-26 16:45:00,68.3,34.8,30.04,NW,307,5.0,15.0,29,0.00,,---,0.00,VWS V14.01,2013-05-26 20:45:00,
2013-05-26 16:46:00,68.3,34.8,30.04,West,280,6.0,15.0,29,0.00,,---,0.00,VWS V14.01,2013-05-26 20:46:00,
2013-05-26 16:47:00,68.3,34.0,30.04,WSW,258,3.0,12.0,28,0.00,,---,0.00,VWS V14.01,2013-05-26 20:47:00,
2013-05-26 16:51:00,68.3,34.0,30.04,NE,38,7.0,12.0,28,0.00,,---,0.00,VWS V14.01,2013-05-26 20:51:00,
2013-05-26 16:55:00,68.4,34.0,30.04,North,9,1.0,12.0,28,0.00,,---,0.00,VWS V14.01,2013-05-26 20:55:00,
2013-05-26 16:57:00,68.4,34.9,30.04,NE,41,6.0,12.0,29,0.00,,---,0.00,VWS V14.01,2013-05-26 20:57:00,
2013-05-26 16:59:00,68.6,34.2,30.04,ENE,78,3.0,12.0,28,0.00,,---,0.00,VWS V14.01,2013-05-26 20:59:00,
2013-05-26 17:01:00,68.6,34.2,30.04,NNW,345,5.0,12.0,28,0.00,,---,0.00,VWS V14.01,2013-05-26 21:01:00,
2013-05-26 17:03:00,68.4,34.0,30.04,WNW,284,3.0,8.0,28,0.00,,---,0.00,VWS V14.01,2013-05-26 21:03:00,
2013-05-26 17:09:00,68.3,34.8,30.04,NW,304,6.0,11.0,29,0.00,,---,0.00,VWS V14.01,2013-05-26 21:09:00,
2013-05-26 17:11:00,68.1,32.9,30.05,NNW,336,8.0,11.0,27,0.00,,---,0.00,VWS V14.01,2013-05-26 21:11:00,
2013-05-26 17:13:00,68.1,32.0,30.04,NNW,344,3.0,11.0,26,0.00,,---,0.00,VWS V14.01,2013-05-26 21:13:00,
2013-05-26 17:15:00,68.1,33.8,30.04,West,281,0.0,11.0,28,0.00,,---,0.00,VWS V14.01,2013-05-26 21:15:00,
2013-05-26 17:16:00,68.1,33.8,30.04,West,281,0.0,11.0,28,0.00,,---,0.00,VWS V14.01,2013-05-26 21:16:00,
2013-05-26 17:17:00,68.1,32.0,30.04,NW,319,4.0,7.0,26,0.00,,---,0.00,VWS V14.01,2013-05-26 21:17:00,
2013-05-26 17:19:00,68.1,33.8,30.05,NNW,329,4.0,9.0,28,0.00,,---,0.00,VWS V14.01,2013-05-26 21:19:00,
2013-05-26 17:23:00,67.9,32.7,30.05,NE,56,7.0,11.0,27,0.00,,---,0.00,VWS V14.01,2013-05-26 21:23:00,
2013-05-26 17:25:00,67.8,33.5,30.05,NW,315,6.0,11.0,28,0.00,,---,0.00,VWS V14.01,2013-05-26 21:25:00,
2013-05-26 17:27:00,67.8,33.5,30.05,NW,325,3.0,11.0,28,0.00,,---,0.00,VWS V14.01,2013-05-26 21:27:00,
2013-05-26 17:29:00,67.8,32.6,30.05,WSW,257,3.0,12.0,27,0.00,,---,0.00,VWS V14.01,2013-05-26 21:29:00,
2013-05-26 17:31:00,67.8,33.5,30.05,WSW,238,3.0,12.0,28,0.00,,---,0.00,VWS V14.01,2013-05-26 21:31:00,
2013-05-26 17:33:00,67.8,33.5,30.05,WSW,243,6.0,12.0,28,0.00,,---,0.00,VWS V14.01,2013-05-26 21:33:00,
2013-05-26 17:35:00,67.8,33.5,30.05,ENE,71,1.0,12.0,28,0.00,,---,0.00,VWS V14.01,2013-05-26 21:35:00,
2013-05-26 17:37:00,67.8,33.5,30.05,WNW,302,0.0,12.0,28,0.00,,---,0.00,VWS V14.01,2013-05-26 21:37:00,
2013-05-26 17:39:00,67.8,33.5,30.05,NNE,22,3.0,12.0,28,0.00,,---,0.00,VWS V14.01,2013-05-26 21:39:00,
2013-05-26 17:41:00,67.9,34.5,30.05,West,269,3.0,12.0,29,0.00,,---,0.00,VWS V14.01,2013-05-26 21:41:00,
2013-05-26 17:43:00,67.9,33.6,30.05,NE,37,10.0,12.0,28,0.00,,---,0.00,VWS V14.01,2013-05-26 21:43:00,
2013-05-26 17:46:00,67.9,33.6,30.05,North,360,5.0,12.0,28,0.00,,---,0.00,VWS V14.01,2013-05-26 21:46:00,
2013-05-26 17:47:00,67.9,32.7,30.05,NW,323,4.0,7.0,27,0.00,,---,0.00,VWS V14.01,2013-05-26 21:47:00,
2013-05-26 17:51:00,67.6,33.4,30.05,East,80,4.0,12.0,28,0.00,,---,0.00,VWS V14.01,2013-05-26 21:51:00,
2013-05-26 17:53:00,67.6,34.2,30.05,WNW,286,3.0,12.0,29,0.00,,---,0.00,VWS V14.01,2013-05-26 21:53:00,
2013-05-26 17:56:00,67.4,32.3,30.05,NNW,327,7.0,12.0,27,0.00,,---,0.00,VWS V14.01,2013-05-26 21:56:00,
2013-05-26 18:01:00,67.3,33.1,30.05,NNW,343,4.0,12.0,28,0.00,,---,0.00,VWS V14.01,2013-05-26 22:01:00,
2013-05-26 18:02:00,67.3,33.1,30.05,North,350,3.0,6.0,28,0.00,,---,0.00,VWS V14.01,2013-05-26 22:02:00,
2013-05-26 18:04:00,67.1,32.0,30.05,NNW,333,5.0,7.0,27,0.00,,---,0.00,VWS V14.01,2013-05-26 22:04:00,
2013-05-26 18:08:00,67.1,32.9,30.05,WNW,293,0.0,7.0,28,0.00,,---,0.00,VWS V14.01,2013-05-26 22:08:00,
2013-05-26 18:10:00,67.1,32.9,30.06,SW,229,7.0,10.0,28,0.00,,---,0.00,VWS V14.01,2013-05-26 22:10:00,
2013-05-26 18:12:00,66.9,31.9,30.06,NNW,329,6.0,10.0,27,0.00,,---,0.00,VWS V14.01,2013-05-26 22:12:00,
2013-05-26 18:14:00,66.8,31.8,30.06,NW,315,10.0,10.0,27,0.00,,---,0.00,VWS V14.01,2013-05-26 22:14:00,
2013-05-26 18:16:00,66.8,32.7,30.06,NNW,338,12.0,12.0,28,0.00,,---,0.00,VWS V14.01,2013-05-26 22:16:00,
2013-05-26 18:18:00,66.6,32.5,30.06,WNW,302,4.0,7.0,28,0.00,,---,0.00,VWS V14.01,2013-05-26 22:18:00,
2013-05-26 18:20:00,66.4,31.4,30.06,NE,36,5.0,12.0,27,0.00,,---,0.00,VWS V14.01,2013-05-26 22:20:00,
2013-05-26 18:24:00,66.4,32.3,30.06,East,83,6.0,12.0,28,0.00,,---,0.00,VWS V14.01,2013-05-26 22:24:00,
2013-05-26 18:26:00,66.3,31.4,30.06,NW,306,2.0,13.0,27,0.00,,---,0.00,VWS V14.01,2013-05-26 22:26:00,
2013-05-26 18:28:00,66.3,31.4,30.06,NW,304,3.0,13.0,27,0.00,,---,0.00,VWS V14.01,2013-05-26 22:28:00,
2013-05-26 18:31:00,66.3,31.4,30.06,WNW,300,2.0,13.0,27,0.00,,---,0.00,VWS V14.01,2013-05-26 22:31:00,
2013-05-26 18:36:00,66.1,31.2,30.07,NW,311,3.0,11.0,27,0.00,,---,0.00,VWS V14.01,2013-05-26 22:36:00,
2013-05-26 18:38:00,66.1,31.2,30.07,West,270,2.0,11.0,27,0.00,,---,0.00,VWS V14.01,2013-05-26 22:38:00,
2013-05-26 18:40:00,66.1,33.0,30.07,North,355,2.0,11.0,29,0.00,,---,0.00,VWS V14.01,2013-05-26 22:40:00,
2013-05-26 18:46:00,66.1,32.1,30.07,WNW,288,7.0,11.0,28,0.00,,---,0.00,VWS V14.01,2013-05-26 22:46:00,
2013-05-26 18:50:00,66.1,31.2,30.08,NW,308,2.0,10.0,27,0.00,,---,0.00,VWS V14.01,2013-05-26 22:50:00,
2013-05-26 18:54:00,66.0,32.0,30.08,WSW,254,2.0,14.0,28,0.00,,---,0.00,VWS V14.01,2013-05-26 22:54:00,
2013-05-26 18:56:00,65.8,32.7,30.08,NE,38,5.0,14.0,29,0.00,,---,0.00,VWS V14.01,2013-05-26 22:56:00,
2013-05-26 18:58:00,65.8,31.8,30.08,NNE,24,8.0,14.0,28,0.00,,---,0.00,VWS V14.01,2013-05-26 22:58:00,
2013-05-26 19:00:00,65.8,31.8,30.08,NW,314,1.0,14.0,28,0.00,,---,0.00,VWS V14.01,2013-05-26 23:00:00,
2013-05-26 19:01:00,65.8,31.8,30.08,West,265,1.0,14.0,28,0.00,,---,0.00,VWS V14.01,2013-05-26 23:01:00,
2013-05-26 19:04:00,65.8,32.7,30.08,NW,312,3.0,5.0,29,0.00,,---,0.00,VWS V14.01,2013-05-26 23:04:00,
2013-05-26 19:06:00,65.6,31.6,30.08,NE,54,4.0,6.0,28,0.00,,---,0.00,VWS V14.01,2013-05-26 23:06:00,
2013-05-26 19:10:00,65.6,31.6,30.08,NW,321,1.0,10.0,28,0.00,,---,0.00,VWS V14.01,2013-05-26 23:10:00,
2013-05-26 19:12:00,65.5,32.4,30.08,WNW,285,2.0,10.0,29,0.00,,---,0.00,VWS V14.01,2013-05-26 23:12:00,
2013-05-26 19:16:00,65.5,31.6,30.08,WNW,288,2.0,10.0,28,0.00,,---,0.00,VWS V14.01,2013-05-26 23:16:00,
2013-05-26 19:20:00,65.3,31.4,30.09,NNW,327,1.0,7.0,28,0.00,,---,0.00,VWS V14.01,2013-05-26 23:20:00,
2013-05-26 19:22:00,65.3,32.3,30.08,NE,53,2.0,7.0,29,0.00,,---,0.00,VWS V14.01,2013-05-26 23:22:00,
2013-05-26 19:26:00,65.2,31.3,30.09,NW,318,2.0,7.0,28,0.00,,---,0.00,VWS V14.01,2013-05-26 23:26:00,
2013-05-26 19:28:00,65.0,32.0,30.09,NNE,19,6.0,7.0,29,0.00,,---,0.00,VWS V14.01,2013-05-26 23:28:00,
2013-05-26 19:31:00,64.8,31.0,30.09,North,355,1.0,7.0,28,0.00,,---,0.00,VWS V14.01,2013-05-26 23:31:00,
2013-05-26 19:32:00,64.8,31.0,30.09,NNE,20,3.0,5.0,28,0.00,,---,0.00,VWS V14.01,2013-05-26 23:32:00,
2013-05-26 19:36:00,64.7,31.7,30.09,NW,323,2.0,6.0,29,0.00,,---,0.00,VWS V14.01,2013-05-26 23:36:00,
2013-05-26 19:38:00,64.7,32.6,30.09,ENE,63,3.0,6.0,30,0.00,,---,0.00,VWS V14.01,2013-05-26 23:38:00,
2013-05-26 19:40:00,64.5,30.7,30.09,NNE,32,0.0,6.0,28,0.00,,---,0.00,VWS V14.01,2013-05-26 23:40:00,
2013-05-26 19:42:00,64.3,31.4,30.09,NNE,32,1.0,6.0,29,0.00,,---,0.00,VWS V14.01,2013-05-26 23:42:00,
2013-05-26 19:44:00,64.2,30.4,30.09,North,360,1.0,6.0,28,0.00,,---,0.00,VWS V14.01,2013-05-26 23:44:00,
2013-05-26 19:46:00,64.2,30.4,30.10,NNE,24,3.0,3.0,28,0.00,,---,0.00,VWS V14.01,2013-05-26 23:46:00,
2013-05-26 19:50:00,63.9,32.7,30.10,WSW,239,0.0,5.0,31,0.00,,---,0.00,VWS V14.01,2013-05-26 23:50:00,
2013-05-26 19:54:00,63.5,32.3,30.10,WSW,255,1.0,5.0,31,0.00,,---,0.00,VWS V14.01,2013-05-26 23:54:00,
2013-05-26 19:56:00,63.4,33.0,30.10,North,355,0.0,5.0,32,0.00,,---,0.00,VWS V14.01,2013-05-26 23:56:00,
2013-05-26 19:58:00,63.2,32.9,30.10,North,355,0.0,5.0,32,0.00,,---,0.00,VWS V14.01,2013-05-26 23:58:00,
2013-05-26 20:02:00,62.9,31.8,30.11,NW,313,0.0,0.0,31,0.00,,---,0.00,VWS V14.01,2013-05-27 00:02:00,
2013-05-26 20:04:00,62.7,31.6,30.11,NW,313,1.0,1.0,31,0.00,,---,0.00,VWS V14.01,2013-05-27 00:04:00,
2013-05-26 20:10:00,62.4,31.4,30.11,NW,316,0.0,3.0,31,0.00,,---,0.00,VWS V14.01,2013-05-27 00:10:00,
2013-05-26 20:12:00,62.3,31.3,30.11,NW,318,0.0,3.0,31,0.00,,---,0.00,VWS V14.01,2013-05-27 00:12:00,
2013-05-26 20:14:00,62.1,31.9,30.11,NW,318,0.0,3.0,32,0.00,,---,0.00,VWS V14.01,2013-05-27 00:14:00,
2013-05-26 20:16:00,62.1,32.7,30.11,NW,318,0.0,3.0,33,0.00,,---,0.00,VWS V14.01,2013-05-27 00:16:00,
2013-05-26 20:20:00,61.6,33.0,30.11,NW,318,0.0,0.0,34,0.00,,---,0.00,VWS V14.01,2013-05-27 00:20:00,
2013-05-26 20:22:00,61.5,33.6,30.11,NW,318,0.0,0.0,35,0.00,,---,0.00,VWS V14.01,2013-05-27 00:22:00,
2013-05-26 20:26:00,60.9,35.1,30.11,NW,318,0.0,0.0,38,0.00,,---,0.00,VWS V14.01,2013-05-27 00:26:00,
2013-05-26 20:28:00,60.5,34.8,30.11,NW,318,0.0,0.0,38,0.00,,---,0.00,VWS V14.01,2013-05-27 00:28:00,
2013-05-26 20:31:00,60.1,35.1,30.11,NW,318,0.0,0.0,39,0.00,,---,0.00,VWS V14.01,2013-05-27 00:31:00,
2013-05-26 20:32:00,59.9,34.9,30.12,NW,318,0.0,0.0,39,0.00,,---,0.00,VWS V14.01,2013-05-27 00:32:00,
2013-05-26 20:34:00,59.6,35.3,30.12,NW,318,0.0,0.0,40,0.00,,---,0.00,VWS V14.01,2013-05-27 00:34:00,
2013-05-26 20:38:00,59.2,34.3,30.12,NW,318,0.0,1.0,39,0.00,,---,0.00,VWS V14.01,2013-05-27 00:38:00,
2013-05-26 20:44:00,58.3,35.3,30.13,NW,318,0.0,1.0,42,0.00,,---,0.00,VWS V14.01,2013-05-27 00:44:00,
2013-05-26 20:46:00,58.1,36.3,30.13,NW,318,0.0,1.0,44,0.00,,---,0.00,VWS V14.01,2013-05-27 00:46:00,
2013-05-26 20:52:00,57.0,35.9,30.13,NW,318,0.0,0.0,45,0.00,,---,0.00,VWS V14.01,2013-05-27 00:52:00,
2013-05-26 20:56:00,56.7,36.7,30.13,NW,318,0.0,0.0,47,0.00,,---,0.00,VWS V14.01,2013-05-27 00:56:00,
2013-05-26 20:58:00,56.5,37.6,30.13,NW,318,0.0,0.0,49,0.00,,---,0.00,VWS V14.01,2013-05-27 00:58:00,
2013-05-26 21:02:00,56.0,37.6,30.13,NW,318,0.0,0.0,50,0.00,,---,0.00,VWS V14.01,2013-05-27 01:02:00,
2013-05-26 21:06:00,55.4,38.1,30.14,NW,318,0.0,0.0,52,0.00,,---,0.00,VWS V14.01,2013-05-27 01:06:00,
2013-05-26 21:08:00,55.3,38.5,30.14,NW,318,0.0,0.0,53,0.00,,---,0.00,VWS V14.01,2013-05-27 01:08:00,
2013-05-26 21:10:00,55.0,38.7,30.14,NW,318,0.0,0.0,54,0.00,,---,0.00,VWS V14.01,2013-05-27 01:10:00,
2013-05-26 21:12:00,54.8,39.4,30.14,NW,318,0.0,0.0,56,0.00,,---,0.00,VWS V14.01,2013-05-27 01:12:00,
2013-05-26 21:14:00,54.5,39.1,30.15,NW,318,0.0,0.0,56,0.00,,---,0.00,VWS V14.01,2013-05-27 01:14:00,
2013-05-26 21:18:00,54.1,39.2,30.15,NW,318,0.0,0.0,57,0.00,,---,0.00,VWS V14.01,2013-05-27 01:18:00,
2013-05-26 21:20:00,53.8,39.8,30.15,NW,318,0.0,0.0,59,0.00,,---,0.00,VWS V14.01,2013-05-27 01:20:00,
2013-05-26 21:22:00,53.6,40.1,30.15,NW,318,0.0,0.0,60,0.00,,---,0.00,VWS V14.01,2013-05-27 01:22:00,
2013-05-26 21:24:00,53.3,39.8,30.15,NW,318,0.0,0.0,60,0.00,,---,0.00,VWS V14.01,2013-05-27 01:24:00,
2013-05-26 21:28:00,52.9,40.2,30.15,NW,318,0.0,0.0,62,0.00,,---,0.00,VWS V14.01,2013-05-27 01:28:00,
2013-05-26 21:32:00,52.3,40.1,30.15,NW,318,0.0,0.0,63,0.00,,---,0.00,VWS V14.01,2013-05-27 01:32:00,
2013-05-26 21:36:00,52.0,39.8,30.16,NW,318,0.0,0.0,63,0.00,,---,0.00,VWS V14.01,2013-05-27 01:36:00,
2013-05-26 21:38:00,51.7,39.9,30.16,NW,318,0.0,0.0,64,0.00,,---,0.00,VWS V14.01,2013-05-27 01:38:00,
2013-05-26 21:40:00,51.6,40.2,30.16,NW,318,0.0,0.0,65,0.00,,---,0.00,VWS V14.01,2013-05-27 01:40:00,
2013-05-26 21:42:00,51.4,40.0,30.16,NW,318,0.0,0.0,65,0.00,,---,0.00,VWS V14.01,2013-05-27 01:42:00,
2013-05-26 21:44:00,51.3,40.0,30.16,NW,318,0.0,0.0,65,0.00,,---,0.00,VWS V14.01,2013-05-27 01:44:00,
2013-05-26 21:50:00,50.7,39.8,30.16,NW,318,0.0,0.0,66,0.00,,---,0.00,VWS V14.01,2013-05-27 01:50:00,
2013-05-26 21:54:00,50.2,39.7,30.16,NW,318,0.0,0.0,67,0.00,,---,0.00,VWS V14.01,2013-05-27 01:54:00,
2013-05-26 21:56:00,50.1,39.6,30.17,NW,318,0.0,0.0,67,0.00,,---,0.00,VWS V14.01,2013-05-27 01:56:00,
2013-05-26 22:00:00,49.8,39.7,30.17,NW,318,0.0,0.0,68,0.00,,---,0.00,VWS V14.01,2013-05-27 02:00:00,
2013-05-26 22:02:00,49.6,39.9,30.17,NW,318,0.0,0.0,69,0.00,,---,0.00,VWS V14.01,2013-05-27 02:02:00,
2013-05-26 22:04:00,49.5,40.1,30.17,NW,318,0.0,0.0,70,0.00,,---,0.00,VWS V14.01,2013-05-27 02:04:00,
2013-05-26 22:06:00,49.4,40.0,30.17,NW,318,0.0,0.0,70,0.00,,---,0.00,VWS V14.01,2013-05-27 02:06:00,
2013-05-26 22:15:00,48.8,40.5,30.18,North,0,0.0,0.0,73,0.00,,---,0.00,VWS V14.01,2013-05-27 02:15:00,
2013-05-26 22:30:00,47.9,40.4,30.18,North,0,0.0,0.0,75,0.00,,---,0.00,VWS V14.01,2013-05-27 02:30:00,
2013-05-26 22:45:00,47.0,40.5,30.18,North,0,0.0,0.0,78,0.00,,---,0.00,VWS V14.01,2013-05-27 02:45:00,
2013-05-26 23:00:00,46.2,40.4,30.19,North,0,0.0,0.0,80,0.00,,---,0.00,VWS V14.01,2013-05-27 03:00:00,
2013-05-26 23:15:00,45.5,40.7,30.19,North,0,0.0,0.0,83,0.00,,---,0.00,VWS V14.01,2013-05-27 03:15:00,
2013-05-26 23:30:00,44.9,40.7,30.19,North,0,0.0,0.0,85,0.00,,---,0.00,VWS V14.01,2013-05-27 03:30:00,
2013-05-26 23:45:00,44.3,40.7,30.20,North,0,0.0,0.0,87,0.00,,---,0.00,VWS V14.01,2013-05-27 03:45:00,